sensor_id;sensor_type;location;lat;lon;timestamp;pressure;altitude;pressure_sealevel;temperature;humidity
15382;BME280;7789;51.364;12.358;2023-02-03T00:02:26;101003.03;;;5.32;100.00
15382;BME280;7789;51.364;12.358;2023-02-03T00:07:31;100991.09;;;5.30;100.00
15382;BME280;7789;51.364;12.358;2023-02-03T00:12:35;100987.72;;;5.28;100.00
15382;BME280;7789;51.364;12.358;2023-02-03T00:17:38;100965.09;;;5.31;100.00
15382;BME280;7789;51.364;12.358;2023-02-03T00:22:43;100953.22;;;5.27;100.00
15382;BME280;7789;51.364;12.358;2023-02-03T00:27:46;100941.16;;;5.26;100.00
15382;BME280;7789;51.364;12.358;2023-02-03T00:32:49;100927.13;;;5.30;100.00
15382;BME280;7789;51.364;12.358;2023-02-03T00:37:55;100910.75;;;5.30;100.00
15382;BME280;7789;51.364;12.358;2023-02-03T00:42:59;100904.56;;;5.32;100.00
15382;BME280;7789;51.364;12.358;2023-02-03T00:48:02;100901.31;;;5.29;100.00
15382;BME280;7789;51.364;12.358;2023-02-03T00:53:08;100879.66;;;5.30;100.00
15382;BME280;7789;51.364;12.358;2023-02-03T00:58:11;100869.53;;;5.25;100.00
15382;BME280;7789;51.364;12.358;2023-02-03T01:03:15;100878.13;;;5.26;100.00
15382;BME280;7789;51.364;12.358;2023-02-03T01:08:20;100870.22;;;5.29;100.00
15382;BME280;7789;51.364;12.358;2023-02-03T01:13:24;100860.66;;;5.29;100.00
15382;BME280;7789;51.364;12.358;2023-02-03T01:18:28;100857.09;;;5.32;100.00
15382;BME280;7789;51.364;12.358;2023-02-03T01:23:33;100845.88;;;5.31;100.00
15382;BME280;7789;51.364;12.358;2023-02-03T01:28:36;100833.44;;;5.38;100.00
15382;BME280;7789;51.364;12.358;2023-02-03T01:33:41;100823.00;;;5.39;100.00
15382;BME280;7789;51.364;12.358;2023-02-03T01:38:48;100803.94;;;5.40;100.00
15382;BME280;7789;51.364;12.358;2023-02-03T01:43:53;100802.31;;;5.38;100.00
15382;BME280;7789;51.364;12.358;2023-02-03T01:49:02;100800.41;;;5.41;100.00
15382;BME280;7789;51.364;12.358;2023-02-03T01:54:12;100795.75;;;5.47;100.00
15382;BME280;7789;51.364;12.358;2023-02-03T01:59:18;100792.22;;;5.48;100.00
15382;BME280;7789;51.364;12.358;2023-02-03T02:04:27;100769.47;;;5.53;100.00
15382;BME280;7789;51.364;12.358;2023-02-03T02:09:33;100777.94;;;5.57;100.00
15382;BME280;7789;51.364;12.358;2023-02-03T02:14:37;100762.09;;;5.61;100.00
15382;BME280;7789;51.364;12.358;2023-02-03T02:25:39;100735.50;;;5.73;100.00
15382;BME280;7789;51.364;12.358;2023-02-03T02:31:33;100732.81;;;5.75;100.00
15382;BME280;7789;51.364;12.358;2023-02-03T02:36:49;100723.78;;;5.82;100.00
15382;BME280;7789;51.364;12.358;2023-02-03T02:41:59;100710.31;;;5.91;100.00
15382;BME280;7789;51.364;12.358;2023-02-03T02:47:13;100698.47;;;6.01;100.00
15382;BME280;7789;51.364;12.358;2023-02-03T02:52:21;100704.13;;;6.07;100.00
15382;BME280;7789;51.364;12.358;2023-02-03T02:57:26;100701.94;;;6.15;100.00
15382;BME280;7789;51.364;12.358;2023-02-03T03:02:33;100694.28;;;6.28;100.00
15382;BME280;7789;51.364;12.358;2023-02-03T03:07:42;100682.25;;;6.41;100.00
15382;BME280;7789;51.364;12.358;2023-02-03T03:12:50;100674.81;;;6.49;100.00
15382;BME280;7789;51.364;12.358;2023-02-03T03:18:00;100654.31;;;6.58;100.00
15382;BME280;7789;51.364;12.358;2023-02-03T03:23:06;100655.44;;;6.68;100.00
15382;BME280;7789;51.364;12.358;2023-02-03T03:28:14;100650.50;;;6.78;100.00
15382;BME280;7789;51.364;12.358;2023-02-03T03:33:21;100653.38;;;6.87;100.00
15382;BME280;7789;51.364;12.358;2023-02-03T03:38:29;100655.38;;;6.96;100.00
15382;BME280;7789;51.364;12.358;2023-02-03T03:43:37;100630.56;;;7.05;100.00
15382;BME280;7789;51.364;12.358;2023-02-03T03:48:49;100612.03;;;7.11;100.00
15382;BME280;7789;51.364;12.358;2023-02-03T03:53:57;100607.34;;;7.16;100.00
15382;BME280;7789;51.364;12.358;2023-02-03T03:59:03;100583.47;;;7.23;100.00
15382;BME280;7789;51.364;12.358;2023-02-03T04:04:09;100586.50;;;7.29;100.00
15382;BME280;7789;51.364;12.358;2023-02-03T04:09:12;100607.75;;;7.36;100.00
15382;BME280;7789;51.364;12.358;2023-02-03T04:14:16;100601.13;;;7.44;100.00
15382;BME280;7789;51.364;12.358;2023-02-03T04:19:20;100619.75;;;7.51;100.00
15382;BME280;7789;51.364;12.358;2023-02-03T04:24:23;100627.16;;;7.57;100.00
15382;BME280;7789;51.364;12.358;2023-02-03T04:29:28;100599.47;;;7.68;100.00
15382;BME280;7789;51.364;12.358;2023-02-03T04:34:36;100614.50;;;7.77;100.00
15382;BME280;7789;51.364;12.358;2023-02-03T04:39:40;100594.13;;;7.84;100.00
15382;BME280;7789;51.364;12.358;2023-02-03T04:44:43;100595.44;;;7.89;100.00
15382;BME280;7789;51.364;12.358;2023-02-03T04:49:48;100581.31;;;7.93;100.00
15382;BME280;7789;51.364;12.358;2023-02-03T04:54:51;100590.28;;;8.02;100.00
15382;BME280;7789;51.364;12.358;2023-02-03T04:59:54;100575.03;;;8.08;100.00
15382;BME280;7789;51.364;12.358;2023-02-03T05:04:59;100557.22;;;8.15;100.00
15382;BME280;7789;51.364;12.358;2023-02-03T05:10:03;100545.59;;;8.20;100.00
15382;BME280;7789;51.364;12.358;2023-02-03T05:15:06;100524.25;;;8.28;100.00
15382;BME280;7789;51.364;12.358;2023-02-03T05:20:11;100515.25;;;8.32;100.00
15382;BME280;7789;51.364;12.358;2023-02-03T05:25:15;100513.28;;;8.35;100.00
15382;BME280;7789;51.364;12.358;2023-02-03T05:30:24;100517.34;;;8.39;100.00
15382;BME280;7789;51.364;12.358;2023-02-03T05:35:31;100522.22;;;8.44;100.00
15382;BME280;7789;51.364;12.358;2023-02-03T05:40:35;100526.16;;;8.49;100.00
15382;BME280;7789;51.364;12.358;2023-02-03T05:45:59;100524.28;;;8.51;100.00
15382;BME280;7789;51.364;12.358;2023-02-03T05:51:04;100519.78;;;8.53;100.00
15382;BME280;7789;51.364;12.358;2023-02-03T05:56:07;100511.16;;;8.53;100.00
15382;BME280;7789;51.364;12.358;2023-02-03T06:01:11;100503.13;;;8.56;100.00
15382;BME280;7789;51.364;12.358;2023-02-03T06:06:16;100472.28;;;8.73;100.00
15382;BME280;7789;51.364;12.358;2023-02-03T06:11:19;100480.34;;;8.94;100.00
15382;BME280;7789;51.364;12.358;2023-02-03T06:16:28;100467.94;;;9.08;100.00
15382;BME280;7789;51.364;12.358;2023-02-03T06:21:35;100461.91;;;9.18;100.00
15382;BME280;7789;51.364;12.358;2023-02-03T06:26:39;100458.59;;;9.16;100.00
15382;BME280;7789;51.364;12.358;2023-02-03T06:31:42;100453.00;;;9.10;100.00
15382;BME280;7789;51.364;12.358;2023-02-03T06:36:49;100439.47;;;9.05;100.00
15382;BME280;7789;51.364;12.358;2023-02-03T06:41:53;100431.66;;;9.05;100.00
15382;BME280;7789;51.364;12.358;2023-02-03T06:46:57;100423.03;;;9.05;100.00
15382;BME280;7789;51.364;12.358;2023-02-03T06:52:02;100417.69;;;9.06;100.00
15382;BME280;7789;51.364;12.358;2023-02-03T06:57:09;100420.06;;;9.09;100.00
15382;BME280;7789;51.364;12.358;2023-02-03T07:02:13;100422.31;;;9.13;100.00
15382;BME280;7789;51.364;12.358;2023-02-03T07:07:20;100415.44;;;9.13;100.00
15382;BME280;7789;51.364;12.358;2023-02-03T07:12:23;100393.78;;;9.12;100.00
15382;BME280;7789;51.364;12.358;2023-02-03T07:17:26;100386.75;;;9.13;100.00
15382;BME280;7789;51.364;12.358;2023-02-03T07:22:30;100390.22;;;9.13;100.00
15382;BME280;7789;51.364;12.358;2023-02-03T07:27:34;100397.91;;;9.14;100.00
15382;BME280;7789;51.364;12.358;2023-02-03T07:32:37;100390.06;;;9.14;100.00
15382;BME280;7789;51.364;12.358;2023-02-03T07:37:42;100380.25;;;9.18;100.00
15382;BME280;7789;51.364;12.358;2023-02-03T07:42:47;100377.31;;;9.22;100.00
15382;BME280;7789;51.364;12.358;2023-02-03T07:47:50;100380.50;;;9.26;100.00
15382;BME280;7789;51.364;12.358;2023-02-03T07:52:55;100375.41;;;9.24;100.00
15382;BME280;7789;51.364;12.358;2023-02-03T07:57:58;100389.88;;;9.28;100.00
15382;BME280;7789;51.364;12.358;2023-02-03T08:03:04;100371.25;;;9.33;100.00
15382;BME280;7789;51.364;12.358;2023-02-03T08:08:08;100357.28;;;9.34;100.00
15382;BME280;7789;51.364;12.358;2023-02-03T08:13:12;100348.50;;;9.35;100.00
15382;BME280;7789;51.364;12.358;2023-02-03T08:18:15;100347.44;;;9.37;100.00
15382;BME280;7789;51.364;12.358;2023-02-03T08:23:20;100344.59;;;9.40;100.00
15382;BME280;7789;51.364;12.358;2023-02-03T08:28:24;100341.03;;;9.41;100.00
15382;BME280;7789;51.364;12.358;2023-02-03T08:33:27;100331.41;;;9.42;100.00
15382;BME280;7789;51.364;12.358;2023-02-03T08:38:32;100321.69;;;9.44;100.00
15382;BME280;7789;51.364;12.358;2023-02-03T08:43:37;100293.81;;;9.44;100.00
15382;BME280;7789;51.364;12.358;2023-02-03T08:48:41;100301.31;;;9.49;100.00
15382;BME280;7789;51.364;12.358;2023-02-03T08:53:45;100284.44;;;9.53;100.00
15382;BME280;7789;51.364;12.358;2023-02-03T08:58:49;100272.09;;;9.55;100.00
15382;BME280;7789;51.364;12.358;2023-02-03T09:03:55;100244.69;;;9.60;100.00
15382;BME280;7789;51.364;12.358;2023-02-03T09:09:00;100260.81;;;9.65;100.00
15382;BME280;7789;51.364;12.358;2023-02-03T09:14:06;100256.06;;;9.70;100.00
15382;BME280;7789;51.364;12.358;2023-02-03T09:19:10;100248.00;;;9.73;100.00
15382;BME280;7789;51.364;12.358;2023-02-03T09:24:15;100241.56;;;9.77;100.00
15382;BME280;7789;51.364;12.358;2023-02-03T09:29:19;100241.31;;;9.80;100.00
15382;BME280;7789;51.364;12.358;2023-02-03T09:34:23;100246.03;;;9.86;100.00
15382;BME280;7789;51.364;12.358;2023-02-03T09:39:28;100244.00;;;9.90;100.00
15382;BME280;7789;51.364;12.358;2023-02-03T09:44:37;100242.25;;;9.90;100.00
15382;BME280;7789;51.364;12.358;2023-02-03T09:49:45;100229.63;;;9.95;100.00
15382;BME280;7789;51.364;12.358;2023-02-03T09:54:57;100222.75;;;9.94;100.00
15382;BME280;7789;51.364;12.358;2023-02-03T10:00:13;100214.66;;;9.97;100.00
15382;BME280;7789;51.364;12.358;2023-02-03T10:05:23;100218.34;;;9.95;100.00
15382;BME280;7789;51.364;12.358;2023-02-03T10:10:36;100227.97;;;9.94;100.00
15382;BME280;7789;51.364;12.358;2023-02-03T10:16:03;100205.19;;;9.96;100.00
15382;BME280;7789;51.364;12.358;2023-02-03T10:21:16;100162.44;;;9.97;100.00
15382;BME280;7789;51.364;12.358;2023-02-03T10:26:26;100167.41;;;10.00;100.00
15382;BME280;7789;51.364;12.358;2023-02-03T10:31:32;100179.44;;;10.03;100.00
15382;BME280;7789;51.364;12.358;2023-02-03T10:36:47;100197.81;;;10.01;100.00
15382;BME280;7789;51.364;12.358;2023-02-03T10:41:54;100183.69;;;10.04;100.00
15382;BME280;7789;51.364;12.358;2023-02-03T10:46:58;100192.22;;;10.06;100.00
15382;BME280;7789;51.364;12.358;2023-02-03T10:52:02;100191.16;;;10.08;100.00
15382;BME280;7789;51.364;12.358;2023-02-03T10:57:11;100198.03;;;10.09;100.00
15382;BME280;7789;51.364;12.358;2023-02-03T11:02:21;100201.34;;;10.11;100.00
15382;BME280;7789;51.364;12.358;2023-02-03T11:07:29;100186.75;;;10.09;100.00
15382;BME280;7789;51.364;12.358;2023-02-03T11:12:33;100196.00;;;10.13;100.00
15382;BME280;7789;51.364;12.358;2023-02-03T11:17:42;100193.69;;;10.19;100.00
15382;BME280;7789;51.364;12.358;2023-02-03T11:22:48;100183.13;;;10.21;100.00
15382;BME280;7789;51.364;12.358;2023-02-03T11:28:02;100183.97;;;10.21;100.00
15382;BME280;7789;51.364;12.358;2023-02-03T11:33:15;100168.94;;;10.14;100.00
15382;BME280;7789;51.364;12.358;2023-02-03T11:38:28;100174.84;;;10.16;100.00
15382;BME280;7789;51.364;12.358;2023-02-03T11:43:33;100169.63;;;10.16;100.00
15382;BME280;7789;51.364;12.358;2023-02-03T11:48:39;100167.19;;;10.24;100.00
15382;BME280;7789;51.364;12.358;2023-02-03T11:53:57;100149.75;;;10.24;100.00
15382;BME280;7789;51.364;12.358;2023-02-03T11:59:36;100165.91;;;10.18;100.00
15382;BME280;7789;51.364;12.358;2023-02-03T12:05:14;100133.50;;;10.21;100.00
15382;BME280;7789;51.364;12.358;2023-02-03T12:10:30;100090.22;;;10.28;100.00
15382;BME280;7789;51.364;12.358;2023-02-03T12:15:48;100109.91;;;10.32;100.00
15382;BME280;7789;51.364;12.358;2023-02-03T12:21:05;100126.56;;;10.31;100.00
15382;BME280;7789;51.364;12.358;2023-02-03T12:26:17;100131.63;;;10.32;100.00
15382;BME280;7789;51.364;12.358;2023-02-03T12:31:29;100148.16;;;10.33;100.00
15382;BME280;7789;51.364;12.358;2023-02-03T12:36:39;100138.78;;;10.30;100.00
15382;BME280;7789;51.364;12.358;2023-02-03T12:41:47;100140.69;;;10.28;100.00
15382;BME280;7789;51.364;12.358;2023-02-03T12:46:59;100160.50;;;10.31;100.00
15382;BME280;7789;51.364;12.358;2023-02-03T12:52:07;100150.19;;;10.29;100.00
15382;BME280;7789;51.364;12.358;2023-02-03T12:57:19;100153.88;;;10.27;100.00
15382;BME280;7789;51.364;12.358;2023-02-03T13:02:26;100159.94;;;10.27;100.00
15382;BME280;7789;51.364;12.358;2023-02-03T13:07:36;100183.19;;;10.30;100.00
15382;BME280;7789;51.364;12.358;2023-02-03T13:12:43;100195.41;;;10.30;100.00
15382;BME280;7789;51.364;12.358;2023-02-03T13:17:53;100207.53;;;10.31;100.00
15382;BME280;7789;51.364;12.358;2023-02-03T13:22:58;100206.53;;;10.22;100.00
15382;BME280;7789;51.364;12.358;2023-02-03T13:28:09;100209.88;;;10.13;100.00
15382;BME280;7789;51.364;12.358;2023-02-03T13:33:51;100216.16;;;10.11;100.00
15382;BME280;7789;51.364;12.358;2023-02-03T13:39:21;100243.25;;;10.10;100.00
15382;BME280;7789;51.364;12.358;2023-02-03T13:44:31;100236.09;;;10.12;100.00
15382;BME280;7789;51.364;12.358;2023-02-03T13:49:36;100244.19;;;10.09;100.00
15382;BME280;7789;51.364;12.358;2023-02-03T13:54:42;100239.50;;;10.03;100.00
15382;BME280;7789;51.364;12.358;2023-02-03T13:59:46;100245.41;;;9.94;100.00
15382;BME280;7789;51.364;12.358;2023-02-03T14:04:53;100247.13;;;9.84;100.00
15382;BME280;7789;51.364;12.358;2023-02-03T14:10:12;100256.91;;;9.60;100.00
15382;BME280;7789;51.364;12.358;2023-02-03T14:15:21;100263.38;;;9.34;100.00
15382;BME280;7789;51.364;12.358;2023-02-03T14:20:44;100266.94;;;9.22;100.00
15382;BME280;7789;51.364;12.358;2023-02-03T14:25:54;100287.31;;;9.17;100.00
15382;BME280;7789;51.364;12.358;2023-02-03T14:31:04;100281.06;;;9.19;100.00
15382;BME280;7789;51.364;12.358;2023-02-03T14:36:28;100269.19;;;9.15;100.00
15382;BME280;7789;51.364;12.358;2023-02-03T14:41:50;100290.19;;;9.14;100.00
15382;BME280;7789;51.364;12.358;2023-02-03T14:47:07;100300.94;;;9.10;100.00
15382;BME280;7789;51.364;12.358;2023-02-03T14:52:26;100302.38;;;9.03;100.00
15382;BME280;7789;51.364;12.358;2023-02-03T14:57:40;100284.13;;;9.03;100.00
15382;BME280;7789;51.364;12.358;2023-02-03T15:08:39;100283.97;;;8.93;100.00
15382;BME280;7789;51.364;12.358;2023-02-03T15:13:43;100285.78;;;8.93;100.00
15382;BME280;7789;51.364;12.358;2023-02-03T15:18:53;100288.84;;;8.98;100.00
15382;BME280;7789;51.364;12.358;2023-02-03T15:23:58;100303.09;;;9.05;100.00
15382;BME280;7789;51.364;12.358;2023-02-03T15:29:05;100313.03;;;9.11;100.00
15382;BME280;7789;51.364;12.358;2023-02-03T15:34:16;100317.78;;;9.16;100.00
15382;BME280;7789;51.364;12.358;2023-02-03T15:39:39;100329.84;;;9.17;100.00
15382;BME280;7789;51.364;12.358;2023-02-03T15:44:51;100326.19;;;9.20;100.00
15382;BME280;7789;51.364;12.358;2023-02-03T15:50:03;100329.78;;;9.30;100.00
15382;BME280;7789;51.364;12.358;2023-02-03T15:55:16;100335.09;;;9.28;100.00
15382;BME280;7789;51.364;12.358;2023-02-03T16:00:42;100334.75;;;9.33;100.00
15382;BME280;7789;51.364;12.358;2023-02-03T16:05:50;100348.13;;;9.28;99.88
15382;BME280;7789;51.364;12.358;2023-02-03T16:10:56;100350.41;;;9.33;97.89
15382;BME280;7789;51.364;12.358;2023-02-03T16:16:03;100352.75;;;9.36;97.25
15382;BME280;7789;51.364;12.358;2023-02-03T16:21:27;100360.56;;;9.25;95.50
15382;BME280;7789;51.364;12.358;2023-02-03T16:26:32;100363.91;;;9.16;94.46
15382;BME280;7789;51.364;12.358;2023-02-03T16:31:43;100353.72;;;9.13;93.46
15382;BME280;7789;51.364;12.358;2023-02-03T16:37:11;100363.63;;;9.08;92.13
15382;BME280;7789;51.364;12.358;2023-02-03T16:42:38;100385.91;;;9.01;90.23
15382;BME280;7789;51.364;12.358;2023-02-03T16:48:01;100401.56;;;9.01;89.14
15382;BME280;7789;51.364;12.358;2023-02-03T16:53:23;100403.56;;;8.98;88.40
15382;BME280;7789;51.364;12.358;2023-02-03T16:58:29;100408.06;;;8.96;87.72
15382;BME280;7789;51.364;12.358;2023-02-03T17:03:33;100417.06;;;8.92;87.74
15382;BME280;7789;51.364;12.358;2023-02-03T17:08:38;100409.00;;;8.95;86.53
15382;BME280;7789;51.364;12.358;2023-02-03T17:13:43;100408.31;;;9.04;86.47
15382;BME280;7789;51.364;12.358;2023-02-03T17:18:47;100422.88;;;9.06;86.25
15382;BME280;7789;51.364;12.358;2023-02-03T17:23:50;100415.91;;;9.07;85.97
15382;BME280;7789;51.364;12.358;2023-02-03T17:28:56;100424.44;;;9.09;85.92
15382;BME280;7789;51.364;12.358;2023-02-03T17:34:04;100438.19;;;9.11;85.49
15382;BME280;7789;51.364;12.358;2023-02-03T17:39:07;100436.63;;;9.08;84.80
15382;BME280;7789;51.364;12.358;2023-02-03T17:44:29;100457.88;;;9.04;84.71
15382;BME280;7789;51.364;12.358;2023-02-03T17:49:50;100453.69;;;9.01;84.67
15382;BME280;7789;51.364;12.358;2023-02-03T17:55:11;100483.94;;;9.04;85.13
15382;BME280;7789;51.364;12.358;2023-02-03T18:00:17;100495.13;;;8.93;85.18
15382;BME280;7789;51.364;12.358;2023-02-03T18:05:20;100508.84;;;8.84;85.32
15382;BME280;7789;51.364;12.358;2023-02-03T18:10:24;100523.44;;;8.87;84.45
15382;BME280;7789;51.364;12.358;2023-02-03T18:15:29;100528.44;;;8.90;83.52
15382;BME280;7789;51.364;12.358;2023-02-03T18:20:34;100521.41;;;8.90;84.38
15382;BME280;7789;51.364;12.358;2023-02-03T18:25:37;100538.53;;;8.94;83.98
15382;BME280;7789;51.364;12.358;2023-02-03T18:30:42;100522.75;;;8.96;84.40
15382;BME280;7789;51.364;12.358;2023-02-03T18:35:46;100529.75;;;8.95;84.54
15382;BME280;7789;51.364;12.358;2023-02-03T18:40:49;100521.19;;;8.93;83.72
15382;BME280;7789;51.364;12.358;2023-02-03T18:45:54;100533.09;;;8.97;83.45
15382;BME280;7789;51.364;12.358;2023-02-03T18:50:59;100529.63;;;8.97;83.27
15382;BME280;7789;51.364;12.358;2023-02-03T18:56:05;100543.84;;;8.93;82.42
15382;BME280;7789;51.364;12.358;2023-02-03T19:01:19;100546.53;;;8.91;82.48
15382;BME280;7789;51.364;12.358;2023-02-03T19:06:22;100566.69;;;8.89;82.95
15382;BME280;7789;51.364;12.358;2023-02-03T19:11:26;100572.84;;;8.88;83.33
15382;BME280;7789;51.364;12.358;2023-02-03T19:16:30;100598.91;;;8.88;83.46
15382;BME280;7789;51.364;12.358;2023-02-03T19:21:35;100587.13;;;8.83;83.85
15382;BME280;7789;51.364;12.358;2023-02-03T19:26:39;100581.94;;;8.83;84.31
15382;BME280;7789;51.364;12.358;2023-02-03T19:31:43;100600.53;;;8.78;85.58
15382;BME280;7789;51.364;12.358;2023-02-03T19:36:47;100582.69;;;8.72;85.56
15382;BME280;7789;51.364;12.358;2023-02-03T19:41:51;100575.81;;;8.71;85.67
15382;BME280;7789;51.364;12.358;2023-02-03T19:46:56;100574.66;;;8.75;85.26
15382;BME280;7789;51.364;12.358;2023-02-03T19:51:59;100603.31;;;8.75;85.34
15382;BME280;7789;51.364;12.358;2023-02-03T19:57:02;100610.19;;;8.76;85.48
15382;BME280;7789;51.364;12.358;2023-02-03T20:02:08;100598.94;;;8.76;85.53
15382;BME280;7789;51.364;12.358;2023-02-03T20:07:15;100608.75;;;8.72;85.79
15382;BME280;7789;51.364;12.358;2023-02-03T20:12:18;100620.84;;;8.73;85.25
15382;BME280;7789;51.364;12.358;2023-02-03T20:17:23;100627.63;;;8.76;85.35
15382;BME280;7789;51.364;12.358;2023-02-03T20:22:34;100617.41;;;8.73;85.90
15382;BME280;7789;51.364;12.358;2023-02-03T20:27:44;100630.31;;;8.74;86.52
15382;BME280;7789;51.364;12.358;2023-02-03T20:32:49;100621.19;;;8.69;86.46
15382;BME280;7789;51.364;12.358;2023-02-03T20:37:53;100622.84;;;8.70;86.90
15382;BME280;7789;51.364;12.358;2023-02-03T20:42:56;100630.75;;;8.68;86.63
15382;BME280;7789;51.364;12.358;2023-02-03T20:48:09;100629.19;;;8.66;85.90
15382;BME280;7789;51.364;12.358;2023-02-03T20:53:16;100644.00;;;8.65;86.43
15382;BME280;7789;51.364;12.358;2023-02-03T20:58:23;100632.66;;;8.66;86.86
15382;BME280;7789;51.364;12.358;2023-02-03T21:03:29;100633.47;;;8.67;87.60
15382;BME280;7789;51.364;12.358;2023-02-03T21:08:50;100636.28;;;8.64;87.47
15382;BME280;7789;51.364;12.358;2023-02-03T21:13:53;100652.03;;;8.62;87.83
15382;BME280;7789;51.364;12.358;2023-02-03T21:18:58;100649.63;;;8.59;88.09
15382;BME280;7789;51.364;12.358;2023-02-03T21:24:18;100661.13;;;8.57;88.50
15382;BME280;7789;51.364;12.358;2023-02-03T21:29:27;100655.06;;;8.56;88.39
15382;BME280;7789;51.364;12.358;2023-02-03T21:34:34;100681.22;;;8.55;89.18
15382;BME280;7789;51.364;12.358;2023-02-03T21:39:39;100686.66;;;8.52;89.35
15382;BME280;7789;51.364;12.358;2023-02-03T21:44:43;100698.84;;;8.51;89.18
15382;BME280;7789;51.364;12.358;2023-02-03T21:49:48;100715.41;;;8.50;89.65
15382;BME280;7789;51.364;12.358;2023-02-03T21:54:51;100714.47;;;8.51;89.78
15382;BME280;7789;51.364;12.358;2023-02-03T21:59:55;100739.56;;;8.52;90.22
15382;BME280;7789;51.364;12.358;2023-02-03T22:05:00;100734.59;;;8.49;90.68
15382;BME280;7789;51.364;12.358;2023-02-03T22:10:04;100743.34;;;8.48;91.51
15382;BME280;7789;51.364;12.358;2023-02-03T22:15:08;100759.69;;;8.50;91.97
15382;BME280;7789;51.364;12.358;2023-02-03T22:20:13;100763.31;;;8.48;92.67
15382;BME280;7789;51.364;12.358;2023-02-03T22:25:16;100765.19;;;8.46;92.97
15382;BME280;7789;51.364;12.358;2023-02-03T22:30:20;100785.00;;;8.48;93.23
15382;BME280;7789;51.364;12.358;2023-02-03T22:35:25;100777.28;;;8.47;93.97
15382;BME280;7789;51.364;12.358;2023-02-03T22:40:28;100789.50;;;8.46;94.54
15382;BME280;7789;51.364;12.358;2023-02-03T22:45:33;100807.72;;;8.46;95.63
15382;BME280;7789;51.364;12.358;2023-02-03T22:50:42;100809.59;;;8.44;96.20
15382;BME280;7789;51.364;12.358;2023-02-03T22:55:45;100816.56;;;8.44;97.83
15382;BME280;7789;51.364;12.358;2023-02-03T23:00:49;100828.66;;;8.45;97.86
15382;BME280;7789;51.364;12.358;2023-02-03T23:05:56;100840.88;;;8.44;98.14
15382;BME280;7789;51.364;12.358;2023-02-03T23:11:01;100849.78;;;8.40;99.39
15382;BME280;7789;51.364;12.358;2023-02-03T23:16:05;100852.53;;;8.39;100.00
15382;BME280;7789;51.364;12.358;2023-02-03T23:21:10;100848.97;;;8.40;100.00
15382;BME280;7789;51.364;12.358;2023-02-03T23:26:13;100860.22;;;8.40;100.00
15382;BME280;7789;51.364;12.358;2023-02-03T23:31:17;100875.03;;;8.40;100.00
15382;BME280;7789;51.364;12.358;2023-02-03T23:36:22;100894.47;;;8.34;100.00
15382;BME280;7789;51.364;12.358;2023-02-03T23:41:26;100892.81;;;8.33;100.00
15382;BME280;7789;51.364;12.358;2023-02-03T23:46:30;100938.31;;;8.28;100.00
15382;BME280;7789;51.364;12.358;2023-02-03T23:51:35;100985.56;;;7.80;100.00
15382;BME280;7789;51.364;12.358;2023-02-03T23:56:39;100996.13;;;7.35;100.00
